createdAt,value
2019-01-12T00:00:26.258Z,35.63
2019-01-12T00:02:54.744Z,33.00
2019-01-12T00:05:23.453Z,34.17
2019-01-12T00:07:55.105Z,35.50
2019-01-12T00:10:24.009Z,39.60
2019-01-12T00:12:52.733Z,40.30
2019-01-12T00:15:25.075Z,41.20
2019-01-12T00:17:53.557Z,39.47
2019-01-12T00:20:22.346Z,41.90
2019-01-12T00:22:51.160Z,45.17
2019-01-12T00:25:19.799Z,40.93
2019-01-12T00:27:48.696Z,39.30
2019-01-12T00:30:19.100Z,43.27
2019-01-12T00:32:47.760Z,36.63
2019-01-12T00:35:16.625Z,42.90
2019-01-12T00:37:45.661Z,38.27
2019-01-12T00:40:14.497Z,43.13
2019-01-12T00:42:43.421Z,37.53
2019-01-12T00:45:14.970Z,34.10
2019-01-12T00:47:43.631Z,38.07
2019-01-12T00:50:21.197Z,37.77
2019-01-12T00:52:45.613Z,35.60
2019-01-12T00:55:14.290Z,39.37
2019-01-12T00:57:43.224Z,37.33
2019-01-12T01:00:15.291Z,34.83
2019-01-12T01:02:44.040Z,31.07
2019-01-12T01:05:12.823Z,39.47
2019-01-12T01:07:41.489Z,34.03
2019-01-12T01:10:13.471Z,37.97
2019-01-12T01:12:41.947Z,34.57
2019-01-12T01:15:11.498Z,33.17
2019-01-12T01:17:40.009Z,31.10
2019-01-12T01:20:14.049Z,35.27
2019-01-12T01:22:42.716Z,30.13
2019-01-12T01:25:11.435Z,31.70
2019-01-12T01:27:39.987Z,31.33
2019-01-12T01:30:14.885Z,31.70
2019-01-12T01:32:45.301Z,26.60
2019-01-12T01:35:14.243Z,31.23
2019-01-12T01:37:42.750Z,31.43
2019-01-12T01:40:16.472Z,31.73
2019-01-12T01:42:45.270Z,25.03
2019-01-12T01:45:16.070Z,30.43
2019-01-12T01:47:44.789Z,28.93
2019-01-12T01:50:14.616Z,24.67
2019-01-12T01:52:43.604Z,24.70
2019-01-12T01:55:12.235Z,25.27
2019-01-12T01:57:40.957Z,27.33
2019-01-12T02:00:13.114Z,25.33
2019-01-12T02:02:41.777Z,24.63
2019-01-12T02:05:10.644Z,24.67
2019-01-12T02:07:39.182Z,22.93
2019-01-12T02:10:19.328Z,22.87
2019-01-12T02:12:48.023Z,24.00
2019-01-12T02:15:18.246Z,24.97
2019-01-12T02:17:46.944Z,21.57
2019-01-12T02:20:15.663Z,20.90
2019-01-12T02:22:44.396Z,16.67
2019-01-12T02:25:13.068Z,19.43
2019-01-12T02:27:41.836Z,25.10
2019-01-12T02:30:16.556Z,19.30
2019-01-12T02:32:45.132Z,23.63
2019-01-12T02:35:13.942Z,19.57
2019-01-12T02:37:42.616Z,21.20
2019-01-12T02:40:11.547Z,21.03
2019-01-12T02:42:40.144Z,26.30
2019-01-12T02:45:11.861Z,20.13
2019-01-12T02:47:40.478Z,22.87
2019-01-12T02:50:11.432Z,23.03
2019-01-12T02:52:40.015Z,22.10
2019-01-12T02:55:09.249Z,22.03
2019-01-12T02:57:38.182Z,22.43
2019-01-12T03:00:10.083Z,19.43
2019-01-12T03:02:38.728Z,19.63
2019-01-12T03:05:07.564Z,21.10
2019-01-12T03:07:37.300Z,21.87
2019-01-12T03:10:08.817Z,19.70
2019-01-12T03:12:38.579Z,28.37
2019-01-12T03:15:10.579Z,22.73
2019-01-12T03:17:39.201Z,23.10
2019-01-12T03:20:11.331Z,23.27
2019-01-12T03:22:39.818Z,21.63
2019-01-12T03:25:17.247Z,16.33
2019-01-12T03:27:38.837Z,20.27
2019-01-12T03:30:17.062Z,20.67
2019-01-12T03:32:46.059Z,21.97
2019-01-12T03:35:14.726Z,20.10
2019-01-12T03:37:43.442Z,23.17
2019-01-12T03:40:15.153Z,23.40
2019-01-12T03:42:43.844Z,23.17
2019-01-12T03:45:16.161Z,29.30
2019-01-12T03:47:44.939Z,21.67
2019-01-12T03:50:14.926Z,20.37
2019-01-12T03:52:43.478Z,19.60
2019-01-12T03:55:11.999Z,24.10
2019-01-12T03:57:40.808Z,24.90
2019-01-12T04:00:17.860Z,22.93
2019-01-12T04:02:46.557Z,19.50
2019-01-12T04:05:15.255Z,23.87
2019-01-12T04:07:43.785Z,23.97
2019-01-12T04:10:13.478Z,27.47
2019-01-12T04:12:41.977Z,22.40
2019-01-12T04:15:12.299Z,23.53
2019-01-12T04:17:40.880Z,27.57
2019-01-12T04:20:12.165Z,25.23
2019-01-12T04:22:40.719Z,23.07
2019-01-12T04:25:09.396Z,20.53
2019-01-12T04:27:38.230Z,24.83
2019-01-12T04:30:10.472Z,28.40
2019-01-12T04:32:39.084Z,23.37
2019-01-12T04:35:08.086Z,26.23
2019-01-12T04:37:36.880Z,24.50
2019-01-12T04:40:11.551Z,28.83
2019-01-12T04:42:40.390Z,32.73
2019-01-12T04:45:09.645Z,28.87
2019-01-12T04:47:38.184Z,35.53
2019-01-12T04:50:12.287Z,33.57
2019-01-12T04:52:41.240Z,40.07
2019-01-12T04:55:09.748Z,35.73
2019-01-12T04:57:38.231Z,36.73
2019-01-12T05:00:12.755Z,32.87
2019-01-12T05:02:41.411Z,35.00
2019-01-12T05:05:10.005Z,36.97
2019-01-12T05:07:38.711Z,33.80
2019-01-12T05:10:09.988Z,46.30
2019-01-12T05:12:38.603Z,36.80
2019-01-12T05:15:10.237Z,44.53
2019-01-12T05:17:38.830Z,42.67
2019-01-12T05:20:14.328Z,41.27
2019-01-12T05:22:42.919Z,40.17
2019-01-12T05:25:11.429Z,32.57
2019-01-12T05:27:40.133Z,31.23
2019-01-12T05:30:12.253Z,33.50
2019-01-12T05:32:40.841Z,29.87
2019-01-12T05:35:09.509Z,30.33
2019-01-12T05:37:39.233Z,34.20
2019-01-12T05:40:09.166Z,36.20
2019-01-12T05:42:37.857Z,32.70
2019-01-12T05:45:08.674Z,30.30
2019-01-12T05:47:55.646Z,25.90
2019-01-12T05:50:26.133Z,27.77
2019-01-12T05:52:54.859Z,26.13
2019-01-12T05:55:23.580Z,24.00
2019-01-12T05:57:52.286Z,25.37
2019-01-12T06:00:21.027Z,26.67
2019-01-12T06:02:49.996Z,20.93
2019-01-12T06:05:18.773Z,22.63
2019-01-12T06:07:47.470Z,23.17
2019-01-12T06:10:16.107Z,25.30
2019-01-12T06:12:44.919Z,25.27
2019-01-12T06:15:16.843Z,20.97
2019-01-12T06:17:45.409Z,20.43
2019-01-12T06:20:15.110Z,27.53
2019-01-12T06:22:43.867Z,17.80
2019-01-12T06:25:12.718Z,24.60
2019-01-12T06:27:41.438Z,23.07
2019-01-12T06:30:15.732Z,18.37
2019-01-12T06:32:44.445Z,19.17
2019-01-12T06:35:13.093Z,21.33
2019-01-12T06:37:41.879Z,19.27
2019-01-12T06:40:13.341Z,21.53
2019-01-12T06:42:41.806Z,23.90
2019-01-12T06:45:12.749Z,22.67
2019-01-12T06:47:41.662Z,19.17
2019-01-12T06:50:13.136Z,21.63
2019-01-12T06:52:41.822Z,21.07
2019-01-12T06:55:10.734Z,21.83
2019-01-12T06:57:39.195Z,20.90
2019-01-12T07:00:16.635Z,17.97
2019-01-12T07:02:45.170Z,20.30
2019-01-12T07:05:13.893Z,20.67
2019-01-12T07:07:42.439Z,22.30
2019-01-12T07:10:13.174Z,21.27
2019-01-12T07:12:42.104Z,23.57
2019-01-12T07:15:12.607Z,22.10
2019-01-12T07:17:43.225Z,23.03
2019-01-12T07:20:13.873Z,23.30
2019-01-12T07:22:42.700Z,23.93
2019-01-12T07:25:11.303Z,27.47
2019-01-12T07:27:40.048Z,25.33
2019-01-12T07:30:17.976Z,19.80
2019-01-12T07:32:46.522Z,28.07
2019-01-12T07:35:15.204Z,24.03
2019-01-12T07:37:43.827Z,21.77
2019-01-12T07:40:12.378Z,21.50
2019-01-12T07:42:41.476Z,26.27
2019-01-12T07:45:10.209Z,31.90
2019-01-12T07:47:38.780Z,24.60
2019-01-12T07:50:12.922Z,18.40
2019-01-12T07:52:41.586Z,22.97
2019-01-12T07:55:10.213Z,24.03
2019-01-12T07:57:38.718Z,21.90
2019-01-12T08:00:13.440Z,26.20
2019-01-12T08:02:41.926Z,26.67
2019-01-12T08:05:10.542Z,27.00
2019-01-12T08:07:39.219Z,23.80
2019-01-12T08:10:13.555Z,30.47
2019-01-12T08:12:42.031Z,27.33
2019-01-12T08:15:10.572Z,27.67
2019-01-12T08:17:40.692Z,31.43
2019-01-12T08:20:10.894Z,28.47
2019-01-12T08:22:39.467Z,26.70
2019-01-12T08:25:09.320Z,29.07
2019-01-12T08:27:38.066Z,33.47
2019-01-12T08:30:15.901Z,33.07
2019-01-12T08:32:44.464Z,33.17
2019-01-12T08:35:12.939Z,25.43
2019-01-12T08:37:41.475Z,33.97
2019-01-12T08:40:11.654Z,35.57
2019-01-12T08:42:40.233Z,31.73
2019-01-12T08:45:10.442Z,29.87
2019-01-12T08:47:39.200Z,28.20
2019-01-12T08:50:11.467Z,30.87
2019-01-12T08:52:40.254Z,29.33
2019-01-12T08:55:10.141Z,24.63
2019-01-12T08:57:38.701Z,28.00
2019-01-12T09:00:18.304Z,34.87
2019-01-12T09:02:47.514Z,25.67
2019-01-12T09:05:15.975Z,28.33
2019-01-12T09:07:44.611Z,29.80
2019-01-12T09:10:16.469Z,24.17
2019-01-12T09:12:45.222Z,26.70
2019-01-12T09:15:13.860Z,24.17
2019-01-12T09:17:42.462Z,28.43
2019-01-12T09:20:13.433Z,27.50
2019-01-12T09:22:42.067Z,30.27
2019-01-12T09:25:10.872Z,34.27
2019-01-12T09:27:39.442Z,29.93
2019-01-12T09:30:16.858Z,29.17
2019-01-12T09:32:46.290Z,30.70
2019-01-12T09:35:15.032Z,32.63
2019-01-12T09:40:42.440Z,33.27
2019-01-12T09:43:10.953Z,31.47
2019-01-12T09:45:39.542Z,28.17
2019-01-12T09:48:08.301Z,31.60
2019-01-12T09:50:36.942Z,30.87
2019-01-12T09:53:05.640Z,29.83
2019-01-12T09:55:34.366Z,27.87
2019-01-12T09:58:03.058Z,25.60
2019-01-12T10:00:31.779Z,29.70
2019-01-12T10:03:00.394Z,29.43
2019-01-12T10:05:29.085Z,31.53
2019-01-12T10:07:57.828Z,28.07
2019-01-12T10:10:27.031Z,30.97
2019-01-12T10:12:55.732Z,29.97
2019-01-12T10:15:24.412Z,35.00
2019-01-12T10:18:10.984Z,35.83
2019-01-12T10:20:39.461Z,32.20
2019-01-12T10:23:08.019Z,34.97
2019-01-12T10:25:36.607Z,36.50
2019-01-12T10:28:05.402Z,37.30
2019-01-12T10:30:33.896Z,32.70
2019-01-12T10:33:02.463Z,30.77
2019-01-12T10:35:31.187Z,30.47
2019-01-12T10:37:59.765Z,36.60
2019-01-12T10:40:28.293Z,34.83
2019-01-12T10:42:56.859Z,32.90
2019-01-12T10:45:25.443Z,32.03
2019-01-12T10:47:54.054Z,26.57
2019-01-12T10:50:25.818Z,26.27
2019-01-12T10:52:54.407Z,30.03
2019-01-12T10:55:23.129Z,27.90
2019-01-12T10:57:52.226Z,26.77
2019-01-12T11:00:23.563Z,22.30
2019-01-12T11:02:52.225Z,28.07
2019-01-12T11:05:20.800Z,26.60
2019-01-12T11:07:49.292Z,28.67
2019-01-12T11:10:17.771Z,26.37
2019-01-12T11:12:46.291Z,24.50
2019-01-12T11:15:17.935Z,24.03
2019-01-12T11:17:46.480Z,24.27
2019-01-12T11:20:14.891Z,26.03
2019-01-12T11:22:48.093Z,25.53
2019-01-12T11:25:16.741Z,27.07
2019-01-12T11:27:45.478Z,23.03
2019-01-12T11:30:16.857Z,22.77
2019-01-12T11:32:45.403Z,22.17
2019-01-12T11:35:13.886Z,21.90
2019-01-12T11:37:44.807Z,21.90
2019-01-12T11:40:15.974Z,23.73
2019-01-12T11:42:44.578Z,21.30
2019-01-12T11:45:13.213Z,26.13
2019-01-12T11:47:41.817Z,25.60
2019-01-12T11:50:14.565Z,21.13
2019-01-12T11:52:43.273Z,22.23
2019-01-12T11:55:12.938Z,30.23
2019-01-12T11:57:41.641Z,24.63
2019-01-12T12:00:22.738Z,24.43
2019-01-12T12:02:51.434Z,26.43
2019-01-12T12:05:20.053Z,24.20
2019-01-12T12:07:48.702Z,24.50
2019-01-12T12:10:17.717Z,24.53
2019-01-12T12:12:46.355Z,22.67
2019-01-12T12:15:17.140Z,26.07
2019-01-12T12:17:45.807Z,27.57
2019-01-12T12:20:17.050Z,21.27
2019-01-12T12:22:45.580Z,30.67
2019-01-12T12:25:14.625Z,25.30
2019-01-12T12:27:43.118Z,28.27
2019-01-12T12:30:23.569Z,22.73
2019-01-12T12:32:52.243Z,28.20
2019-01-12T12:35:20.767Z,27.50
2019-01-12T12:37:49.669Z,25.63
2019-01-12T12:40:20.639Z,28.40
2019-01-12T12:42:50.205Z,28.03
2019-01-12T12:45:24.274Z,29.83
2019-01-12T12:47:52.866Z,29.90
2019-01-12T12:50:21.609Z,33.20
2019-01-12T12:52:54.611Z,26.50
2019-01-12T12:55:26.706Z,30.07
2019-01-12T12:57:55.313Z,27.90
2019-01-12T13:00:26.733Z,35.13
2019-01-12T13:02:55.428Z,27.43
2019-01-12T13:05:24.065Z,28.20
2019-01-12T13:07:52.700Z,22.40
2019-01-12T13:10:25.203Z,27.10
2019-01-12T13:12:54.335Z,25.40
2019-01-12T13:15:23.488Z,30.27
2019-01-12T13:17:52.084Z,26.63
2019-01-12T13:20:20.854Z,33.27
2019-01-12T13:22:50.681Z,35.63
2019-01-12T13:25:19.251Z,29.07
2019-01-12T13:27:48.034Z,31.97
2019-01-12T13:30:19.282Z,34.73
2019-01-12T13:32:48.069Z,40.33
2019-01-12T13:35:16.752Z,36.67
2019-01-12T13:37:45.365Z,32.27
2019-01-12T13:40:19.565Z,34.20
2019-01-12T13:42:48.137Z,36.07
2019-01-12T13:45:18.672Z,37.73
2019-01-12T13:47:47.040Z,37.87
2019-01-12T13:50:19.772Z,32.63
2019-01-12T13:52:48.316Z,34.87
2019-01-12T13:55:17.097Z,34.27
2019-01-12T13:57:47.946Z,41.33
2019-01-12T14:00:24.545Z,38.50
2019-01-12T14:02:53.518Z,41.83
2019-01-12T14:05:22.081Z,38.30
2019-01-12T14:07:56.042Z,35.63
2019-01-12T14:10:20.931Z,36.60
2019-01-12T14:12:53.266Z,36.30
2019-01-12T14:15:21.657Z,42.83
2019-01-12T14:17:50.234Z,40.17
2019-01-12T14:20:21.471Z,39.30
2019-01-12T14:22:49.977Z,33.00
2019-01-12T14:25:18.453Z,42.27
2019-01-12T14:27:47.078Z,36.47
2019-01-12T14:30:19.801Z,32.83
2019-01-12T14:32:48.385Z,30.23
2019-01-12T14:35:18.525Z,32.90
2019-01-12T14:37:49.309Z,27.10
2019-01-12T14:40:20.000Z,37.60
2019-01-12T14:42:48.665Z,41.67
2019-01-12T14:45:25.727Z,36.40
2019-01-12T14:47:56.991Z,37.43
2019-01-12T14:50:25.510Z,30.20
2019-01-12T14:52:54.407Z,34.13
2019-01-12T14:55:23.680Z,35.90
2019-01-12T14:57:52.404Z,37.03
2019-01-12T15:00:23.260Z,43.77
2019-01-12T15:02:52.024Z,36.40
2019-01-12T15:05:22.940Z,36.90
2019-01-12T15:07:51.719Z,40.53
2019-01-12T15:10:20.937Z,43.47
2019-01-12T15:12:50.413Z,31.83
2019-01-12T15:15:19.831Z,35.60
2019-01-12T15:17:48.704Z,43.87
2019-01-12T15:20:19.932Z,38.53
2019-01-12T15:22:48.652Z,38.53
2019-01-12T15:25:17.133Z,41.83
2019-01-12T15:27:45.726Z,39.30
2019-01-12T15:30:16.620Z,44.57
2019-01-12T15:32:45.128Z,41.57
2019-01-12T15:35:14.670Z,38.03
2019-01-12T15:37:43.585Z,41.53
2019-01-12T15:40:14.936Z,44.97
2019-01-12T15:42:43.531Z,39.43
2019-01-12T15:45:15.318Z,47.03
2019-01-12T15:47:44.085Z,29.23
2019-01-12T15:50:15.152Z,41.67
2019-01-12T15:52:44.924Z,35.73
2019-01-12T15:55:13.347Z,38.33
2019-01-12T15:57:41.929Z,39.67
2019-01-12T16:00:13.703Z,38.47
2019-01-12T16:02:46.125Z,39.03
2019-01-12T16:05:14.842Z,39.83
2019-01-12T16:07:43.652Z,42.40
2019-01-12T16:10:13.554Z,44.77
2019-01-12T16:12:42.473Z,49.23
2019-01-12T16:15:17.045Z,45.97
2019-01-12T16:17:45.584Z,45.13
2019-01-12T16:20:19.988Z,43.60
2019-01-12T16:22:48.571Z,45.73
2019-01-12T16:25:17.157Z,41.27
2019-01-12T16:27:45.797Z,49.70
2019-01-12T16:30:17.474Z,42.43
2019-01-12T16:32:46.386Z,41.90
2019-01-12T16:35:14.968Z,43.93
2019-01-12T16:37:43.751Z,47.50
2019-01-12T16:40:21.454Z,41.57
2019-01-12T16:42:50.001Z,31.33
2019-01-12T16:45:18.624Z,35.10
2019-01-12T16:47:47.302Z,39.67
2019-01-12T16:50:15.787Z,42.97
2019-01-12T16:52:44.512Z,43.97
2019-01-12T16:55:15.009Z,41.63
2019-01-12T16:57:43.694Z,35.30
2019-01-12T17:00:18.119Z,42.97
2019-01-12T17:02:47.125Z,39.60
2019-01-12T17:05:21.758Z,44.97
2019-01-12T17:07:50.536Z,36.97
2019-01-12T17:10:21.753Z,44.07
2019-01-12T17:12:50.396Z,49.40
2019-01-12T17:15:22.870Z,45.70
2019-01-12T17:17:51.655Z,45.60
2019-01-12T17:20:22.542Z,50.43
2019-01-12T17:22:53.906Z,47.10
2019-01-12T17:25:23.833Z,43.73
2019-01-12T17:27:52.531Z,46.70
2019-01-12T17:30:23.573Z,45.50
2019-01-12T17:32:52.272Z,49.40
2019-01-12T17:35:22.733Z,55.90
2019-01-12T17:37:51.358Z,48.13
2019-01-12T17:40:19.982Z,61.63
2019-01-12T17:42:48.562Z,53.83
2019-01-12T17:45:27.134Z,54.40
2019-01-12T17:47:58.546Z,56.00
2019-01-12T17:50:27.103Z,53.37
2019-01-12T17:52:55.780Z,63.13
2019-01-12T17:55:25.575Z,51.33
2019-01-12T17:57:57.254Z,52.50
2019-01-12T18:00:34.433Z,57.10
2019-01-12T18:03:03.101Z,55.37
2019-01-12T18:05:31.690Z,52.87
2019-01-12T18:08:00.609Z,52.23
2019-01-12T18:10:29.379Z,53.77
2019-01-12T18:12:58.116Z,63.53
2019-01-12T18:15:26.844Z,55.40
2019-01-12T18:17:56.370Z,70.63
2019-01-12T18:20:24.959Z,71.33
2019-01-12T18:22:53.511Z,60.37
2019-01-12T18:26:01.744Z,67.57
2019-01-12T18:28:30.317Z,71.73
2019-01-12T18:30:59.022Z,67.20
2019-01-12T18:33:27.816Z,57.77
2019-01-12T18:35:56.477Z,60.73
2019-01-12T18:38:25.104Z,68.40
2019-01-12T18:40:53.870Z,70.60
2019-01-12T18:43:22.485Z,79.30
2019-01-12T18:45:51.421Z,73.13
2019-01-12T18:48:21.971Z,65.20
2019-01-12T18:50:50.905Z,72.40
2019-01-12T18:53:19.672Z,82.27
2019-01-12T18:55:48.417Z,84.47
2019-01-12T18:58:17.038Z,78.33
2019-01-12T19:00:45.806Z,82.90
2019-01-12T19:03:14.342Z,79.97
2019-01-12T19:05:42.884Z,78.03
2019-01-12T19:08:11.556Z,86.53
2019-01-12T19:10:40.355Z,92.00
2019-01-12T19:13:08.934Z,79.33
2019-01-12T19:15:37.498Z,81.30
2019-01-12T19:18:06.129Z,82.00
2019-01-12T19:20:34.789Z,88.57
2019-01-12T19:23:03.532Z,91.93
2019-01-12T19:25:32.208Z,94.53
2019-01-12T19:28:00.833Z,84.00
2019-01-12T19:30:29.646Z,89.00
2019-01-12T19:32:58.315Z,88.30
2019-01-12T19:35:26.789Z,87.03
2019-01-12T19:37:55.341Z,77.13
2019-01-12T19:40:24.015Z,81.73
2019-01-12T19:42:52.564Z,83.93
2019-01-12T19:45:21.229Z,81.40
2019-01-12T19:47:49.906Z,89.87
2019-01-12T19:50:21.615Z,72.17
2019-01-12T19:52:50.221Z,76.27
2019-01-12T19:55:18.912Z,79.07
2019-01-12T19:57:47.637Z,69.57
2019-01-12T20:00:22.448Z,79.70
2019-01-12T20:02:51.140Z,92.03
2019-01-12T20:05:19.651Z,86.33
2019-01-12T20:07:48.236Z,61.60
2019-01-12T20:10:18.384Z,71.43
2019-01-12T20:12:47.067Z,67.33
2019-01-12T20:15:18.185Z,70.70
2019-01-12T20:17:46.831Z,76.47
2019-01-12T20:20:16.237Z,75.23
2019-01-12T20:22:47.790Z,87.47
2019-01-12T20:25:19.603Z,76.17
2019-01-12T20:27:48.198Z,73.90
2019-01-12T20:30:32.241Z,82.60
2019-01-12T20:33:19.122Z,75.87
2019-01-12T20:35:53.840Z,71.90
2019-01-12T20:38:25.734Z,78.77
2019-01-12T20:40:57.537Z,67.97
2019-01-12T20:43:53.309Z,65.93
2019-01-12T20:46:25.183Z,68.20
2019-01-12T20:49:11.992Z,60.90
2019-01-12T20:52:08.179Z,62.50
2019-01-12T20:54:45.651Z,64.00
2019-01-12T20:57:20.058Z,73.47
2019-01-12T21:00:08.730Z,62.40
2019-01-12T21:02:49.589Z,54.80
2019-01-12T21:05:26.955Z,51.97
2019-01-12T21:08:10.519Z,55.47
2019-01-12T21:10:54.684Z,57.80
2019-01-12T21:13:41.743Z,55.00
2019-01-12T21:16:16.293Z,55.40
2019-01-12T21:18:44.768Z,46.47
2019-01-12T21:21:13.702Z,48.83
2019-01-12T21:23:42.496Z,72.17
2019-01-12T21:26:11.466Z,54.00
2019-01-12T21:28:40.166Z,48.23
2019-01-12T21:31:08.824Z,57.70
2019-01-12T21:33:37.343Z,49.87
2019-01-12T21:36:06.129Z,44.23
2019-01-12T21:38:34.761Z,39.17
2019-01-12T21:41:03.557Z,36.90
2019-01-12T21:43:32.040Z,40.60
2019-01-12T21:46:00.590Z,36.90
2019-01-12T21:48:29.154Z,40.27
2019-01-12T21:50:59.860Z,36.40
2019-01-12T21:53:28.362Z,32.67
2019-01-12T21:55:56.972Z,41.73
2019-01-12T21:58:25.735Z,43.07
2019-01-12T22:00:56.032Z,43.00
2019-01-12T22:03:24.699Z,41.50
2019-01-12T22:05:53.343Z,38.73
2019-01-12T22:08:22.095Z,39.23
2019-01-12T22:10:50.846Z,43.03
2019-01-12T22:13:19.431Z,42.30
2019-01-12T22:15:48.051Z,39.90
2019-01-12T22:18:16.650Z,38.73
2019-01-12T22:20:45.139Z,38.13
2019-01-12T22:23:13.620Z,42.07
2019-01-12T22:25:42.191Z,41.20
2019-01-12T22:28:10.766Z,38.67
2019-01-12T22:30:39.307Z,39.20
2019-01-12T22:33:07.969Z,43.50
2019-01-12T22:35:36.534Z,39.90
2019-01-12T22:38:05.249Z,46.17
2019-01-12T22:40:34.038Z,37.17
2019-01-12T22:43:04.734Z,45.80
2019-01-12T22:45:33.007Z,44.53
2019-01-12T22:48:01.755Z,45.70
2019-01-12T22:50:30.299Z,46.20
2019-01-12T22:52:58.997Z,46.53
2019-01-12T22:55:27.592Z,45.63
2019-01-12T22:57:56.123Z,48.73
2019-01-12T23:00:44.804Z,51.53
2019-01-12T23:03:13.484Z,51.00
2019-01-12T23:05:51.475Z,53.03
2019-01-12T23:08:35.464Z,48.87
2019-01-12T23:11:06.427Z,47.27
2019-01-12T23:13:35.056Z,48.40
2019-01-12T23:16:03.671Z,46.00
2019-01-12T23:18:32.377Z,45.93
2019-01-12T23:21:01.441Z,46.57
2019-01-12T23:23:32.180Z,50.80
2019-01-12T23:26:00.901Z,47.33
2019-01-12T23:28:29.501Z,48.20
2019-01-12T23:30:58.068Z,48.93
2019-01-12T23:33:26.699Z,47.80
2019-01-12T23:35:55.397Z,46.33
2019-01-12T23:38:24.074Z,51.77
2019-01-12T23:40:52.746Z,50.63
2019-01-12T23:43:21.323Z,46.13
2019-01-12T23:45:49.795Z,51.60
2019-01-12T23:48:20.287Z,45.60
2019-01-12T23:50:49.074Z,51.30
2019-01-12T23:53:17.591Z,45.47
2019-01-12T23:55:46.269Z,46.83
2019-01-12T23:58:14.800Z,47.53
